sensor_id;sensor_type;location;lat;lon;timestamp;P1;durP1;ratioP1;P2;durP2;ratioP2
43841;SDS011;29495;49.970;20.842;2022-07-23T00:00:33;7.97;;;6.18;;
43841;SDS011;29495;49.970;20.842;2022-07-23T00:02:59;7.15;;;5.95;;
43841;SDS011;29495;49.970;20.842;2022-07-23T00:05:25;8.13;;;5.95;;
43841;SDS011;29495;49.970;20.842;2022-07-23T00:07:51;8.02;;;5.80;;
43841;SDS011;29495;49.970;20.842;2022-07-23T00:10:17;8.70;;;5.50;;
43841;SDS011;29495;49.970;20.842;2022-07-23T00:12:43;9.07;;;5.90;;
43841;SDS011;29495;49.970;20.842;2022-07-23T00:15:09;6.97;;;5.75;;
43841;SDS011;29495;49.970;20.842;2022-07-23T00:17:35;11.45;;;6.68;;
43841;SDS011;29495;49.970;20.842;2022-07-23T00:20:01;8.60;;;5.90;;
43841;SDS011;29495;49.970;20.842;2022-07-23T00:22:28;7.25;;;5.50;;
43841;SDS011;29495;49.970;20.842;2022-07-23T00:24:55;9.63;;;5.93;;
43841;SDS011;29495;49.970;20.842;2022-07-23T00:27:21;8.25;;;5.63;;
43841;SDS011;29495;49.970;20.842;2022-07-23T00:29:47;5.40;;;4.90;;
43841;SDS011;29495;49.970;20.842;2022-07-23T00:32:13;7.40;;;5.50;;
43841;SDS011;29495;49.970;20.842;2022-07-23T00:34:39;6.75;;;6.05;;
43841;SDS011;29495;49.970;20.842;2022-07-23T00:37:05;8.07;;;5.65;;
43841;SDS011;29495;49.970;20.842;2022-07-23T00:39:31;6.22;;;5.38;;
43841;SDS011;29495;49.970;20.842;2022-07-23T00:41:57;5.47;;;4.65;;
43841;SDS011;29495;49.970;20.842;2022-07-23T00:44:24;7.72;;;5.93;;
43841;SDS011;29495;49.970;20.842;2022-07-23T00:46:52;7.15;;;6.13;;
43841;SDS011;29495;49.970;20.842;2022-07-23T00:49:23;7.80;;;5.88;;
43841;SDS011;29495;49.970;20.842;2022-07-23T00:51:50;6.30;;;5.67;;
43841;SDS011;29495;49.970;20.842;2022-07-23T00:54:23;7.95;;;6.38;;
43841;SDS011;29495;49.970;20.842;2022-07-23T00:56:51;7.32;;;5.35;;
43841;SDS011;29495;49.970;20.842;2022-07-23T00:59:18;7.90;;;5.60;;
43841;SDS011;29495;49.970;20.842;2022-07-23T01:01:44;6.15;;;5.25;;
43841;SDS011;29495;49.970;20.842;2022-07-23T01:04:12;7.10;;;5.85;;
43841;SDS011;29495;49.970;20.842;2022-07-23T01:06:38;7.03;;;5.65;;
43841;SDS011;29495;49.970;20.842;2022-07-23T01:09:05;8.00;;;5.93;;
43841;SDS011;29495;49.970;20.842;2022-07-23T01:11:35;6.45;;;5.43;;
43841;SDS011;29495;49.970;20.842;2022-07-23T01:14:23;7.45;;;5.22;;
43841;SDS011;29495;49.970;20.842;2022-07-23T01:16:49;6.65;;;5.55;;
43841;SDS011;29495;49.970;20.842;2022-07-23T01:19:15;8.05;;;5.60;;
43841;SDS011;29495;49.970;20.842;2022-07-23T01:21:48;6.90;;;6.20;;
43841;SDS011;29495;49.970;20.842;2022-07-23T01:24:16;6.70;;;5.28;;
43841;SDS011;29495;49.970;20.842;2022-07-23T01:26:53;6.68;;;5.70;;
43841;SDS011;29495;49.970;20.842;2022-07-23T01:29:19;6.07;;;5.45;;
43841;SDS011;29495;49.970;20.842;2022-07-23T01:31:47;6.63;;;5.05;;
43841;SDS011;29495;49.970;20.842;2022-07-23T01:34:13;8.00;;;5.45;;
43841;SDS011;29495;49.970;20.842;2022-07-23T01:36:41;6.57;;;5.82;;
43841;SDS011;29495;49.970;20.842;2022-07-23T01:39:09;5.95;;;5.35;;
43841;SDS011;29495;49.970;20.842;2022-07-23T01:41:34;8.57;;;5.72;;
43841;SDS011;29495;49.970;20.842;2022-07-23T01:44:01;6.47;;;5.20;;
43841;SDS011;29495;49.970;20.842;2022-07-23T01:46:28;6.97;;;5.57;;
43841;SDS011;29495;49.970;20.842;2022-07-23T01:48:54;6.82;;;5.40;;
43841;SDS011;29495;49.970;20.842;2022-07-23T01:51:40;6.18;;;5.57;;
43841;SDS011;29495;49.970;20.842;2022-07-23T01:54:26;8.25;;;5.40;;
43841;SDS011;29495;49.970;20.842;2022-07-23T01:56:53;7.70;;;4.93;;
43841;SDS011;29495;49.970;20.842;2022-07-23T01:59:20;6.60;;;5.90;;
43841;SDS011;29495;49.970;20.842;2022-07-23T02:01:47;6.47;;;5.00;;
43841;SDS011;29495;49.970;20.842;2022-07-23T02:04:13;7.90;;;5.38;;
43841;SDS011;29495;49.970;20.842;2022-07-23T02:06:39;6.22;;;5.30;;
43841;SDS011;29495;49.970;20.842;2022-07-23T02:09:05;6.40;;;5.57;;
43841;SDS011;29495;49.970;20.842;2022-07-23T02:11:31;6.38;;;5.22;;
43841;SDS011;29495;49.970;20.842;2022-07-23T02:13:57;6.97;;;5.65;;
43841;SDS011;29495;49.970;20.842;2022-07-23T02:16:23;7.43;;;5.13;;
43841;SDS011;29495;49.970;20.842;2022-07-23T02:18:49;6.05;;;5.28;;
43841;SDS011;29495;49.970;20.842;2022-07-23T02:21:15;5.88;;;5.28;;
43841;SDS011;29495;49.970;20.842;2022-07-23T02:23:41;6.97;;;5.47;;
43841;SDS011;29495;49.970;20.842;2022-07-23T02:26:07;6.72;;;5.25;;
43841;SDS011;29495;49.970;20.842;2022-07-23T02:28:33;6.25;;;5.40;;
43841;SDS011;29495;49.970;20.842;2022-07-23T02:30:59;8.50;;;5.25;;
43841;SDS011;29495;49.970;20.842;2022-07-23T02:33:25;7.68;;;6.72;;
43841;SDS011;29495;49.970;20.842;2022-07-23T02:35:51;6.65;;;5.65;;
43841;SDS011;29495;49.970;20.842;2022-07-23T02:38:18;8.07;;;6.03;;
43841;SDS011;29495;49.970;20.842;2022-07-23T02:40:45;10.20;;;5.70;;
43841;SDS011;29495;49.970;20.842;2022-07-23T02:43:11;9.32;;;6.07;;
43841;SDS011;29495;49.970;20.842;2022-07-23T02:45:38;6.47;;;5.63;;
43841;SDS011;29495;49.970;20.842;2022-07-23T02:48:03;6.88;;;5.85;;
43841;SDS011;29495;49.970;20.842;2022-07-23T02:50:29;6.65;;;5.95;;
43841;SDS011;29495;49.970;20.842;2022-07-23T02:52:57;7.43;;;5.63;;
43841;SDS011;29495;49.970;20.842;2022-07-23T02:55:24;7.32;;;5.70;;
43841;SDS011;29495;49.970;20.842;2022-07-23T02:57:51;8.65;;;5.72;;
43841;SDS011;29495;49.970;20.842;2022-07-23T03:00:17;7.38;;;5.85;;
43841;SDS011;29495;49.970;20.842;2022-07-23T03:02:43;8.05;;;5.93;;
43841;SDS011;29495;49.970;20.842;2022-07-23T03:05:09;7.70;;;6.07;;
43841;SDS011;29495;49.970;20.842;2022-07-23T03:07:39;6.47;;;5.70;;
43841;SDS011;29495;49.970;20.842;2022-07-23T03:10:06;7.30;;;5.90;;
43841;SDS011;29495;49.970;20.842;2022-07-23T03:12:32;9.02;;;5.18;;
43841;SDS011;29495;49.970;20.842;2022-07-23T03:14:58;7.90;;;5.38;;
43841;SDS011;29495;49.970;20.842;2022-07-23T03:17:26;7.03;;;5.20;;
43841;SDS011;29495;49.970;20.842;2022-07-23T03:19:52;8.30;;;5.30;;
43841;SDS011;29495;49.970;20.842;2022-07-23T03:22:18;6.68;;;5.47;;
43841;SDS011;29495;49.970;20.842;2022-07-23T03:24:44;6.72;;;5.22;;
43841;SDS011;29495;49.970;20.842;2022-07-23T03:27:29;7.47;;;6.03;;
43841;SDS011;29495;49.970;20.842;2022-07-23T03:29:57;5.97;;;5.43;;
43841;SDS011;29495;49.970;20.842;2022-07-23T03:32:24;6.57;;;5.18;;
43841;SDS011;29495;49.970;20.842;2022-07-23T03:34:50;6.13;;;5.53;;
43841;SDS011;29495;49.970;20.842;2022-07-23T03:37:17;7.22;;;5.15;;
43841;SDS011;29495;49.970;20.842;2022-07-23T03:39:44;5.45;;;4.70;;
43841;SDS011;29495;49.970;20.842;2022-07-23T03:42:11;7.15;;;5.30;;
43841;SDS011;29495;49.970;20.842;2022-07-23T03:44:37;6.38;;;5.50;;
43841;SDS011;29495;49.970;20.842;2022-07-23T03:47:03;6.32;;;5.70;;
43841;SDS011;29495;49.970;20.842;2022-07-23T03:49:30;8.32;;;6.75;;
43841;SDS011;29495;49.970;20.842;2022-07-23T03:51:56;6.88;;;6.13;;
43841;SDS011;29495;49.970;20.842;2022-07-23T03:54:22;7.75;;;6.15;;
43841;SDS011;29495;49.970;20.842;2022-07-23T03:56:48;10.13;;;6.53;;
43841;SDS011;29495;49.970;20.842;2022-07-23T03:59:14;7.80;;;6.88;;
43841;SDS011;29495;49.970;20.842;2022-07-23T04:01:40;10.82;;;6.00;;
43841;SDS011;29495;49.970;20.842;2022-07-23T04:04:06;7.05;;;5.95;;
43841;SDS011;29495;49.970;20.842;2022-07-23T04:06:35;5.70;;;5.20;;
43841;SDS011;29495;49.970;20.842;2022-07-23T04:09:01;7.88;;;6.43;;
43841;SDS011;29495;49.970;20.842;2022-07-23T04:11:29;6.88;;;6.05;;
43841;SDS011;29495;49.970;20.842;2022-07-23T04:13:55;7.15;;;6.05;;
43841;SDS011;29495;49.970;20.842;2022-07-23T04:16:21;8.77;;;6.78;;
43841;SDS011;29495;49.970;20.842;2022-07-23T04:18:49;8.32;;;5.85;;
43841;SDS011;29495;49.970;20.842;2022-07-23T04:21:18;8.13;;;5.65;;
43841;SDS011;29495;49.970;20.842;2022-07-23T04:23:45;8.07;;;5.50;;
43841;SDS011;29495;49.970;20.842;2022-07-23T04:26:12;6.53;;;5.20;;
43841;SDS011;29495;49.970;20.842;2022-07-23T04:28:38;5.50;;;4.78;;
43841;SDS011;29495;49.970;20.842;2022-07-23T04:31:04;6.45;;;5.22;;
43841;SDS011;29495;49.970;20.842;2022-07-23T04:33:32;7.50;;;5.05;;
43841;SDS011;29495;49.970;20.842;2022-07-23T04:36:01;6.78;;;4.85;;
43841;SDS011;29495;49.970;20.842;2022-07-23T04:38:27;6.10;;;5.18;;
43841;SDS011;29495;49.970;20.842;2022-07-23T04:40:58;7.82;;;5.65;;
43841;SDS011;29495;49.970;20.842;2022-07-23T04:43:24;7.50;;;5.50;;
43841;SDS011;29495;49.970;20.842;2022-07-23T04:45:50;5.20;;;4.68;;
43841;SDS011;29495;49.970;20.842;2022-07-23T04:48:16;6.28;;;5.13;;
43841;SDS011;29495;49.970;20.842;2022-07-23T04:50:42;5.90;;;4.43;;
43841;SDS011;29495;49.970;20.842;2022-07-23T04:53:16;6.60;;;5.53;;
43841;SDS011;29495;49.970;20.842;2022-07-23T04:55:43;6.65;;;5.25;;
43841;SDS011;29495;49.970;20.842;2022-07-23T04:58:09;7.10;;;5.70;;
43841;SDS011;29495;49.970;20.842;2022-07-23T05:00:35;6.90;;;5.93;;
43841;SDS011;29495;49.970;20.842;2022-07-23T05:03:02;7.55;;;5.63;;
43841;SDS011;29495;49.970;20.842;2022-07-23T05:05:28;7.40;;;5.70;;
43841;SDS011;29495;49.970;20.842;2022-07-23T05:07:58;8.45;;;5.60;;
43841;SDS011;29495;49.970;20.842;2022-07-23T05:10:26;6.82;;;6.05;;
43841;SDS011;29495;49.970;20.842;2022-07-23T05:12:52;6.65;;;5.50;;
43841;SDS011;29495;49.970;20.842;2022-07-23T05:15:18;7.10;;;5.47;;
43841;SDS011;29495;49.970;20.842;2022-07-23T05:17:45;5.70;;;5.10;;
43841;SDS011;29495;49.970;20.842;2022-07-23T05:20:15;8.88;;;5.30;;
43841;SDS011;29495;49.970;20.842;2022-07-23T05:22:41;6.10;;;4.95;;
43841;SDS011;29495;49.970;20.842;2022-07-23T05:25:07;5.57;;;4.97;;
43841;SDS011;29495;49.970;20.842;2022-07-23T05:27:33;10.13;;;5.70;;
43841;SDS011;29495;49.970;20.842;2022-07-23T05:29:59;7.13;;;5.43;;
43841;SDS011;29495;49.970;20.842;2022-07-23T05:32:25;6.05;;;4.93;;
43841;SDS011;29495;49.970;20.842;2022-07-23T05:35:01;6.15;;;4.78;;
43841;SDS011;29495;49.970;20.842;2022-07-23T05:37:27;5.15;;;4.60;;
43841;SDS011;29495;49.970;20.842;2022-07-23T05:39:53;6.50;;;4.15;;
43841;SDS011;29495;49.970;20.842;2022-07-23T05:42:19;5.25;;;4.28;;
43841;SDS011;29495;49.970;20.842;2022-07-23T05:44:44;4.35;;;3.95;;
43841;SDS011;29495;49.970;20.842;2022-07-23T05:47:11;7.13;;;5.10;;
43841;SDS011;29495;49.970;20.842;2022-07-23T05:49:37;4.78;;;3.60;;
43841;SDS011;29495;49.970;20.842;2022-07-23T05:52:36;5.32;;;3.70;;
43841;SDS011;29495;49.970;20.842;2022-07-23T05:55:27;4.38;;;3.97;;
43841;SDS011;29495;49.970;20.842;2022-07-23T05:57:57;4.97;;;3.88;;
43841;SDS011;29495;49.970;20.842;2022-07-23T06:00:23;4.20;;;3.60;;
43841;SDS011;29495;49.970;20.842;2022-07-23T06:02:50;4.07;;;3.67;;
43841;SDS011;29495;49.970;20.842;2022-07-23T06:05:16;4.28;;;3.88;;
43841;SDS011;29495;49.970;20.842;2022-07-23T06:10:10;5.22;;;3.90;;
43841;SDS011;29495;49.970;20.842;2022-07-23T06:12:36;4.43;;;3.85;;
43841;SDS011;29495;49.970;20.842;2022-07-23T06:15:02;3.97;;;3.30;;
43841;SDS011;29495;49.970;20.842;2022-07-23T06:17:29;4.13;;;3.72;;
43841;SDS011;29495;49.970;20.842;2022-07-23T06:19:55;3.95;;;3.22;;
43841;SDS011;29495;49.970;20.842;2022-07-23T06:22:21;6.20;;;3.85;;
43841;SDS011;29495;49.970;20.842;2022-07-23T06:24:48;17.67;;;4.20;;
43841;SDS011;29495;49.970;20.842;2022-07-23T06:27:14;4.93;;;3.50;;
43841;SDS011;29495;49.970;20.842;2022-07-23T06:29:40;5.47;;;3.85;;
43841;SDS011;29495;49.970;20.842;2022-07-23T06:32:06;5.60;;;3.78;;
43841;SDS011;29495;49.970;20.842;2022-07-23T06:34:42;4.57;;;3.22;;
43841;SDS011;29495;49.970;20.842;2022-07-23T06:37:08;6.03;;;3.97;;
43841;SDS011;29495;49.970;20.842;2022-07-23T06:39:34;6.18;;;3.75;;
43841;SDS011;29495;49.970;20.842;2022-07-23T06:41:59;5.13;;;3.70;;
43841;SDS011;29495;49.970;20.842;2022-07-23T06:44:36;6.03;;;3.30;;
43841;SDS011;29495;49.970;20.842;2022-07-23T06:47:02;4.95;;;3.80;;
43841;SDS011;29495;49.970;20.842;2022-07-23T06:49:28;4.35;;;3.50;;
43841;SDS011;29495;49.970;20.842;2022-07-23T06:51:56;6.65;;;3.92;;
43841;SDS011;29495;49.970;20.842;2022-07-23T06:54:22;4.47;;;3.88;;
43841;SDS011;29495;49.970;20.842;2022-07-23T06:56:49;4.18;;;3.53;;
43841;SDS011;29495;49.970;20.842;2022-07-23T06:59:15;3.40;;;3.10;;
43841;SDS011;29495;49.970;20.842;2022-07-23T07:01:42;3.92;;;3.53;;
43841;SDS011;29495;49.970;20.842;2022-07-23T07:04:08;5.45;;;3.80;;
43841;SDS011;29495;49.970;20.842;2022-07-23T07:06:34;3.80;;;3.40;;
43841;SDS011;29495;49.970;20.842;2022-07-23T07:09:00;5.00;;;4.50;;
43841;SDS011;29495;49.970;20.842;2022-07-23T07:11:26;4.95;;;4.18;;
43841;SDS011;29495;49.970;20.842;2022-07-23T07:13:52;7.05;;;5.00;;
43841;SDS011;29495;49.970;20.842;2022-07-23T07:16:18;5.80;;;4.40;;
43841;SDS011;29495;49.970;20.842;2022-07-23T07:18:44;5.40;;;4.15;;
43841;SDS011;29495;49.970;20.842;2022-07-23T07:21:10;4.82;;;4.13;;
43841;SDS011;29495;49.970;20.842;2022-07-23T07:23:35;4.97;;;3.83;;
43841;SDS011;29495;49.970;20.842;2022-07-23T07:26:02;4.75;;;3.72;;
43841;SDS011;29495;49.970;20.842;2022-07-23T07:28:28;6.03;;;3.65;;
43841;SDS011;29495;49.970;20.842;2022-07-23T07:30:54;5.22;;;3.90;;
43841;SDS011;29495;49.970;20.842;2022-07-23T07:33:19;3.67;;;3.38;;
43841;SDS011;29495;49.970;20.842;2022-07-23T07:35:46;4.63;;;4.22;;
43841;SDS011;29495;49.970;20.842;2022-07-23T07:38:12;4.40;;;3.92;;
43841;SDS011;29495;49.970;20.842;2022-07-23T07:40:53;4.32;;;3.92;;
43841;SDS011;29495;49.970;20.842;2022-07-23T07:43:19;4.05;;;3.53;;
43841;SDS011;29495;49.970;20.842;2022-07-23T07:45:45;5.40;;;3.97;;
43841;SDS011;29495;49.970;20.842;2022-07-23T07:48:11;4.82;;;3.65;;
43841;SDS011;29495;49.970;20.842;2022-07-23T07:50:37;4.32;;;3.92;;
43841;SDS011;29495;49.970;20.842;2022-07-23T07:53:03;4.40;;;3.97;;
43841;SDS011;29495;49.970;20.842;2022-07-23T07:55:29;5.50;;;3.97;;
43841;SDS011;29495;49.970;20.842;2022-07-23T07:57:55;4.50;;;3.97;;
43841;SDS011;29495;49.970;20.842;2022-07-23T08:00:20;5.05;;;4.30;;
43841;SDS011;29495;49.970;20.842;2022-07-23T08:02:49;5.65;;;4.07;;
43841;SDS011;29495;49.970;20.842;2022-07-23T08:05:24;4.05;;;3.67;;
43841;SDS011;29495;49.970;20.842;2022-07-23T08:07:51;4.55;;;3.42;;
43841;SDS011;29495;49.970;20.842;2022-07-23T08:10:18;4.63;;;4.05;;
43841;SDS011;29495;49.970;20.842;2022-07-23T08:12:46;6.72;;;4.47;;
43841;SDS011;29495;49.970;20.842;2022-07-23T08:15:14;4.70;;;4.20;;
43841;SDS011;29495;49.970;20.842;2022-07-23T08:17:41;5.80;;;3.90;;
43841;SDS011;29495;49.970;20.842;2022-07-23T08:20:08;5.65;;;4.13;;
43841;SDS011;29495;49.970;20.842;2022-07-23T08:25:13;5.32;;;3.65;;
43841;SDS011;29495;49.970;20.842;2022-07-23T08:27:40;5.80;;;3.53;;
43841;SDS011;29495;49.970;20.842;2022-07-23T08:30:06;5.25;;;4.07;;
43841;SDS011;29495;49.970;20.842;2022-07-23T08:32:32;6.28;;;4.72;;
43841;SDS011;29495;49.970;20.842;2022-07-23T08:34:58;5.95;;;4.60;;
43841;SDS011;29495;49.970;20.842;2022-07-23T08:37:24;4.88;;;4.30;;
43841;SDS011;29495;49.970;20.842;2022-07-23T08:39:52;4.35;;;3.53;;
43841;SDS011;29495;49.970;20.842;2022-07-23T08:42:18;4.05;;;3.15;;
43841;SDS011;29495;49.970;20.842;2022-07-23T08:44:46;5.07;;;4.28;;
43841;SDS011;29495;49.970;20.842;2022-07-23T08:47:13;6.30;;;5.63;;
43841;SDS011;29495;49.970;20.842;2022-07-23T08:49:41;6.47;;;4.70;;
43841;SDS011;29495;49.970;20.842;2022-07-23T08:52:07;6.68;;;4.30;;
43841;SDS011;29495;49.970;20.842;2022-07-23T08:54:33;6.60;;;3.95;;
43841;SDS011;29495;49.970;20.842;2022-07-23T08:57:00;4.05;;;3.28;;
43841;SDS011;29495;49.970;20.842;2022-07-23T08:59:26;3.85;;;3.47;;
43841;SDS011;29495;49.970;20.842;2022-07-23T09:01:53;6.03;;;5.18;;
43841;SDS011;29495;49.970;20.842;2022-07-23T09:04:19;5.32;;;4.30;;
43841;SDS011;29495;49.970;20.842;2022-07-23T09:06:45;5.03;;;4.53;;
43841;SDS011;29495;49.970;20.842;2022-07-23T09:09:18;5.38;;;4.88;;
43841;SDS011;29495;49.970;20.842;2022-07-23T09:11:46;5.50;;;4.93;;
43841;SDS011;29495;49.970;20.842;2022-07-23T09:14:15;7.00;;;5.00;;
43841;SDS011;29495;49.970;20.842;2022-07-23T09:17:07;5.95;;;4.93;;
43841;SDS011;29495;49.970;20.842;2022-07-23T09:19:37;5.13;;;4.60;;
43841;SDS011;29495;49.970;20.842;2022-07-23T09:22:18;5.90;;;4.80;;
43841;SDS011;29495;49.970;20.842;2022-07-23T09:32:38;5.97;;;4.78;;
43841;SDS011;29495;49.970;20.842;2022-07-23T09:35:05;4.30;;;3.90;;
43841;SDS011;29495;49.970;20.842;2022-07-23T09:37:31;6.32;;;4.72;;
43841;SDS011;29495;49.970;20.842;2022-07-23T09:40:07;5.05;;;4.55;;
43841;SDS011;29495;49.970;20.842;2022-07-23T09:42:35;4.72;;;4.28;;
43841;SDS011;29495;49.970;20.842;2022-07-23T09:45:01;5.80;;;5.18;;
43841;SDS011;29495;49.970;20.842;2022-07-23T09:47:28;5.18;;;4.68;;
43841;SDS011;29495;49.970;20.842;2022-07-23T09:50:09;4.63;;;4.22;;
43841;SDS011;29495;49.970;20.842;2022-07-23T09:52:48;9.13;;;4.28;;
43841;SDS011;29495;49.970;20.842;2022-07-23T09:55:15;5.60;;;5.10;;
43841;SDS011;29495;49.970;20.842;2022-07-23T09:57:42;5.35;;;3.90;;
43841;SDS011;29495;49.970;20.842;2022-07-23T10:00:19;4.75;;;4.25;;
43841;SDS011;29495;49.970;20.842;2022-07-23T10:02:45;6.90;;;4.20;;
43841;SDS011;29495;49.970;20.842;2022-07-23T10:05:27;8.43;;;4.63;;
43841;SDS011;29495;49.970;20.842;2022-07-23T10:08:14;6.15;;;5.55;;
43841;SDS011;29495;49.970;20.842;2022-07-23T10:11:02;5.60;;;5.05;;
43841;SDS011;29495;49.970;20.842;2022-07-23T10:13:31;5.25;;;4.35;;
43841;SDS011;29495;49.970;20.842;2022-07-23T10:16:19;4.28;;;3.88;;
43841;SDS011;29495;49.970;20.842;2022-07-23T10:18:46;5.03;;;4.43;;
43841;SDS011;29495;49.970;20.842;2022-07-23T10:21:13;4.78;;;4.30;;
43841;SDS011;29495;49.970;20.842;2022-07-23T10:23:47;7.28;;;5.03;;
43841;SDS011;29495;49.970;20.842;2022-07-23T10:26:31;5.93;;;5.38;;
43841;SDS011;29495;49.970;20.842;2022-07-23T10:29:22;8.55;;;4.10;;
43841;SDS011;29495;49.970;20.842;2022-07-23T10:32:40;5.03;;;4.50;;
43841;SDS011;29495;49.970;20.842;2022-07-23T10:38:00;6.55;;;3.70;;
43841;SDS011;29495;49.970;20.842;2022-07-23T10:40:49;7.18;;;4.55;;
43841;SDS011;29495;49.970;20.842;2022-07-23T10:43:20;4.80;;;4.40;;
43841;SDS011;29495;49.970;20.842;2022-07-23T10:45:46;7.43;;;5.05;;
43841;SDS011;29495;49.970;20.842;2022-07-23T10:48:14;6.45;;;4.60;;
43841;SDS011;29495;49.970;20.842;2022-07-23T10:56:17;6.57;;;4.63;;
43841;SDS011;29495;49.970;20.842;2022-07-23T10:59:03;4.90;;;4.25;;
43841;SDS011;29495;49.970;20.842;2022-07-23T11:01:33;6.15;;;4.82;;
43841;SDS011;29495;49.970;20.842;2022-07-23T11:04:01;6.43;;;4.38;;
43841;SDS011;29495;49.970;20.842;2022-07-23T11:11:49;5.18;;;4.00;;
43841;SDS011;29495;49.970;20.842;2022-07-23T11:14:15;4.55;;;4.15;;
43841;SDS011;29495;49.970;20.842;2022-07-23T11:17:20;4.20;;;3.80;;
43841;SDS011;29495;49.970;20.842;2022-07-23T11:25:09;4.10;;;3.70;;
43841;SDS011;29495;49.970;20.842;2022-07-23T11:30:07;4.80;;;4.22;;
43841;SDS011;29495;49.970;20.842;2022-07-23T11:32:38;4.00;;;3.60;;
43841;SDS011;29495;49.970;20.842;2022-07-23T11:35:21;3.85;;;3.45;;
43841;SDS011;29495;49.970;20.842;2022-07-23T11:37:51;4.43;;;4.00;;
43841;SDS011;29495;49.970;20.842;2022-07-23T11:40:24;4.50;;;4.10;;
43841;SDS011;29495;49.970;20.842;2022-07-23T11:42:58;4.70;;;4.30;;
43841;SDS011;29495;49.970;20.842;2022-07-23T11:45:33;5.30;;;4.65;;
43841;SDS011;29495;49.970;20.842;2022-07-23T11:48:02;4.85;;;4.35;;
43841;SDS011;29495;49.970;20.842;2022-07-23T11:50:29;4.40;;;4.00;;
43841;SDS011;29495;49.970;20.842;2022-07-23T11:52:55;4.18;;;3.80;;
43841;SDS011;29495;49.970;20.842;2022-07-23T11:55:21;4.10;;;3.70;;
43841;SDS011;29495;49.970;20.842;2022-07-23T11:58:13;4.70;;;4.20;;
43841;SDS011;29495;49.970;20.842;2022-07-23T12:00:40;4.20;;;3.80;;
43841;SDS011;29495;49.970;20.842;2022-07-23T12:03:06;3.42;;;3.13;;
43841;SDS011;29495;49.970;20.842;2022-07-23T12:05:34;3.10;;;2.80;;
43841;SDS011;29495;49.970;20.842;2022-07-23T12:08:02;5.53;;;3.75;;
43841;SDS011;29495;49.970;20.842;2022-07-23T12:10:33;4.45;;;4.05;;
43841;SDS011;29495;49.970;20.842;2022-07-23T12:13:05;3.58;;;3.25;;
43841;SDS011;29495;49.970;20.842;2022-07-23T12:15:40;3.45;;;3.15;;
43841;SDS011;29495;49.970;20.842;2022-07-23T12:18:12;3.80;;;3.40;;
43841;SDS011;29495;49.970;20.842;2022-07-23T12:20:40;3.97;;;3.60;;
43841;SDS011;29495;49.970;20.842;2022-07-23T12:23:08;3.00;;;2.75;;
43841;SDS011;29495;49.970;20.842;2022-07-23T12:25:37;3.50;;;3.20;;
43841;SDS011;29495;49.970;20.842;2022-07-23T12:28:09;4.65;;;4.10;;
43841;SDS011;29495;49.970;20.842;2022-07-23T12:30:41;3.70;;;3.40;;
43841;SDS011;29495;49.970;20.842;2022-07-23T12:33:10;4.25;;;3.75;;
43841;SDS011;29495;49.970;20.842;2022-07-23T12:35:38;3.72;;;3.35;;
43841;SDS011;29495;49.970;20.842;2022-07-23T12:38:08;3.80;;;3.50;;
43841;SDS011;29495;49.970;20.842;2022-07-23T12:43:19;4.57;;;3.63;;
43841;SDS011;29495;49.970;20.842;2022-07-23T12:48:32;3.00;;;2.80;;
43841;SDS011;29495;49.970;20.842;2022-07-23T12:51:03;3.13;;;2.83;;
43841;SDS011;29495;49.970;20.842;2022-07-23T12:53:40;3.67;;;3.05;;
43841;SDS011;29495;49.970;20.842;2022-07-23T12:56:18;6.05;;;3.60;;
43841;SDS011;29495;49.970;20.842;2022-07-23T13:01:30;5.68;;;3.85;;
43841;SDS011;29495;49.970;20.842;2022-07-23T13:04:05;3.60;;;3.30;;
43841;SDS011;29495;49.970;20.842;2022-07-23T13:06:35;2.90;;;2.70;;
43841;SDS011;29495;49.970;20.842;2022-07-23T13:09:09;5.47;;;3.97;;
43841;SDS011;29495;49.970;20.842;2022-07-23T13:11:38;5.65;;;4.05;;
43841;SDS011;29495;49.970;20.842;2022-07-23T13:14:04;3.85;;;3.45;;
43841;SDS011;29495;49.970;20.842;2022-07-23T13:16:31;3.60;;;3.30;;
43841;SDS011;29495;49.970;20.842;2022-07-23T13:18:58;4.18;;;3.78;;
43841;SDS011;29495;49.970;20.842;2022-07-23T13:21:25;3.90;;;3.60;;
43841;SDS011;29495;49.970;20.842;2022-07-23T13:23:51;4.38;;;3.97;;
43841;SDS011;29495;49.970;20.842;2022-07-23T13:26:18;5.68;;;4.50;;
43841;SDS011;29495;49.970;20.842;2022-07-23T13:28:44;4.78;;;4.28;;
43841;SDS011;29495;49.970;20.842;2022-07-23T13:31:10;5.22;;;4.72;;
43841;SDS011;29495;49.970;20.842;2022-07-23T13:33:36;3.95;;;3.53;;
43841;SDS011;29495;49.970;20.842;2022-07-23T13:36:02;4.30;;;3.90;;
43841;SDS011;29495;49.970;20.842;2022-07-23T13:38:28;3.83;;;3.08;;
43841;SDS011;29495;49.970;20.842;2022-07-23T13:41:13;4.25;;;2.78;;
43841;SDS011;29495;49.970;20.842;2022-07-23T13:43:41;3.67;;;3.35;;
43841;SDS011;29495;49.970;20.842;2022-07-23T13:46:07;3.42;;;3.13;;
43841;SDS011;29495;49.970;20.842;2022-07-23T13:48:33;3.33;;;3.03;;
43841;SDS011;29495;49.970;20.842;2022-07-23T13:50:59;5.07;;;4.68;;
43841;SDS011;29495;49.970;20.842;2022-07-23T13:53:25;4.00;;;3.70;;
43841;SDS011;29495;49.970;20.842;2022-07-23T13:55:51;6.57;;;4.63;;
43841;SDS011;29495;49.970;20.842;2022-07-23T13:58:18;5.43;;;3.70;;
43841;SDS011;29495;49.970;20.842;2022-07-23T14:00:48;4.95;;;4.45;;
43841;SDS011;29495;49.970;20.842;2022-07-23T14:03:17;4.50;;;4.10;;
43841;SDS011;29495;49.970;20.842;2022-07-23T14:05:43;3.58;;;3.28;;
43841;SDS011;29495;49.970;20.842;2022-07-23T14:08:10;3.72;;;3.40;;
43841;SDS011;29495;49.970;20.842;2022-07-23T14:10:36;3.30;;;3.00;;
43841;SDS011;29495;49.970;20.842;2022-07-23T14:13:02;3.50;;;3.17;;
43841;SDS011;29495;49.970;20.842;2022-07-23T14:15:29;4.45;;;4.05;;
43841;SDS011;29495;49.970;20.842;2022-07-23T14:17:59;4.30;;;3.65;;
43841;SDS011;29495;49.970;20.842;2022-07-23T14:20:25;6.30;;;4.50;;
43841;SDS011;29495;49.970;20.842;2022-07-23T14:22:57;5.28;;;4.03;;
43841;SDS011;29495;49.970;20.842;2022-07-23T14:25:25;3.95;;;3.20;;
43841;SDS011;29495;49.970;20.842;2022-07-23T14:27:51;3.70;;;3.00;;
43841;SDS011;29495;49.970;20.842;2022-07-23T14:30:18;3.00;;;2.80;;
43841;SDS011;29495;49.970;20.842;2022-07-23T14:32:44;3.03;;;2.30;;
43841;SDS011;29495;49.970;20.842;2022-07-23T14:35:10;2.83;;;2.50;;
43841;SDS011;29495;49.970;20.842;2022-07-23T14:37:35;2.65;;;2.45;;
43841;SDS011;29495;49.970;20.842;2022-07-23T14:40:01;3.10;;;2.80;;
43841;SDS011;29495;49.970;20.842;2022-07-23T14:42:28;2.97;;;2.67;;
43841;SDS011;29495;49.970;20.842;2022-07-23T14:44:54;2.97;;;2.63;;
43841;SDS011;29495;49.970;20.842;2022-07-23T14:47:20;2.80;;;2.47;;
43841;SDS011;29495;49.970;20.842;2022-07-23T14:49:46;2.97;;;2.78;;
43841;SDS011;29495;49.970;20.842;2022-07-23T14:52:11;2.85;;;2.58;;
43841;SDS011;29495;49.970;20.842;2022-07-23T14:54:43;2.75;;;2.55;;
43841;SDS011;29495;49.970;20.842;2022-07-23T14:57:09;2.25;;;2.00;;
43841;SDS011;29495;49.970;20.842;2022-07-23T14:59:35;2.30;;;2.10;;
43841;SDS011;29495;49.970;20.842;2022-07-23T15:02:01;3.35;;;2.55;;
43841;SDS011;29495;49.970;20.842;2022-07-23T15:04:27;4.07;;;3.60;;
43841;SDS011;29495;49.970;20.842;2022-07-23T15:06:53;3.65;;;3.30;;
43841;SDS011;29495;49.970;20.842;2022-07-23T15:09:19;4.93;;;4.47;;
43841;SDS011;29495;49.970;20.842;2022-07-23T15:11:46;3.67;;;3.28;;
43841;SDS011;29495;49.970;20.842;2022-07-23T15:14:12;3.10;;;2.85;;
43841;SDS011;29495;49.970;20.842;2022-07-23T15:16:38;2.50;;;2.30;;
43841;SDS011;29495;49.970;20.842;2022-07-23T15:19:04;2.55;;;2.35;;
43841;SDS011;29495;49.970;20.842;2022-07-23T15:21:30;2.00;;;1.90;;
43841;SDS011;29495;49.970;20.842;2022-07-23T15:24:25;3.05;;;2.83;;